VLG78KK LEBL-LMML
Flight info
| Callsign | VLG78KK |
|---|---|
| Flight time | 1h 37m |
| Altitude | 37000 |
| Route | DIPES N725 OSPOK DCT NOLVI DCT ORKUM/N0436F380 DCT ELSAG DCT ALG/N0440F370 DCT SENTI DCT RATOK DCT UPLIT M732 GZO |
| Aircraft | A320/M-SDE3FGHIRWY/LB1 |
Departure
| Time | 2026-05-05 17:01 |
|---|---|
| Airport | Josep Tarradellas Barcelona-El Prat Airport (LEBL) |
Arrival
| Time | 2026-05-05 18:39 |
|---|---|
| Airport | Malta International Airport (LMML) |
| Time | Latitude | Longitude | Altitude | Speed | Heading |
|---|---|---|---|---|---|
| 2026-05-05 16:29 | 41.29189 | 2.08065 | 22 ft | 0 kts | 155° |
| 2026-05-05 16:48 | 41.29198 | 2.08060 | 21 ft | 3 kts | 153° |
| 2026-05-05 16:48 | 41.29216 | 2.08047 | 22 ft | 3 kts | 147° |
| 2026-05-05 16:48 | 41.29232 | 2.08032 | 20 ft | 3 kts | 138° |
| 2026-05-05 16:49 | 41.29246 | 2.08013 | 22 ft | 3 kts | 121° |
| 2026-05-05 16:49 | 41.29253 | 2.07990 | 19 ft | 3 kts | 85° |
| 2026-05-05 16:49 | 41.29252 | 2.07979 | 22 ft | 0 kts | 65° |
| 2026-05-05 16:53 | 41.29260 | 2.08004 | 19 ft | 7 kts | 65° |
| 2026-05-05 16:53 | 41.29290 | 2.08091 | 19 ft | 14 kts | 65° |
| 2026-05-05 16:53 | 41.29339 | 2.08237 | 20 ft | 20 kts | 65° |
| 2026-05-05 16:53 | 41.29337 | 2.08392 | 21 ft | 18 kts | 141° |
| 2026-05-05 16:54 | 41.29229 | 2.08463 | 20 ft | 18 kts | 155° |
| 2026-05-05 16:54 | 41.29101 | 2.08541 | 16 ft | 23 kts | 156° |
| 2026-05-05 16:54 | 41.28970 | 2.08619 | 20 ft | 18 kts | 155° |
| 2026-05-05 16:54 | 41.28932 | 2.08642 | 17 ft | 0 kts | 155° |
| 2026-05-05 16:55 | 41.28922 | 2.08648 | 17 ft | 4 kts | 155° |
| 2026-05-05 16:55 | 41.28887 | 2.08671 | 16 ft | 7 kts | 147° |
| 2026-05-05 16:55 | 41.28869 | 2.08736 | 17 ft | 9 kts | 88° |
| 2026-05-05 16:56 | 41.28895 | 2.08822 | 16 ft | 14 kts | 66° |
| 2026-05-05 16:56 | 41.28947 | 2.08976 | 19 ft | 22 kts | 66° |
| 2026-05-05 16:56 | 41.29020 | 2.09196 | 18 ft | 26 kts | 66° |
| 2026-05-05 16:56 | 41.29097 | 2.09417 | 17 ft | 29 kts | 65° |
| 2026-05-05 16:57 | 41.29188 | 2.09678 | 17 ft | 32 kts | 66° |
| 2026-05-05 16:57 | 41.29268 | 2.09908 | 18 ft | 23 kts | 58° |
| 2026-05-05 16:57 | 41.29323 | 2.10075 | 16 ft | 19 kts | 90° |
| 2026-05-05 16:57 | 41.29298 | 2.10180 | 14 ft | 0 kts | 112° |
| 2026-05-05 16:58 | 41.29295 | 2.10188 | 14 ft | 5 kts | 112° |
| 2026-05-05 16:59 | 41.29265 | 2.10281 | 13 ft | 13 kts | 123° |
| 2026-05-05 16:59 | 41.29204 | 2.10267 | 17 ft | 8 kts | 231° |
| 2026-05-05 16:59 | 41.29203 | 2.10265 | 17 ft | 0 kts | 237° |
| 2026-05-05 17:00 | 41.29168 | 2.10175 | 18 ft | 33 kts | 244° |
| 2026-05-05 17:01 | 41.28966 | 2.09609 | 19 ft | 99 kts | 245° |
| 2026-05-05 17:01 | 41.28589 | 2.08532 | 42 ft | 159 kts | 242° |
| 2026-05-05 17:01 | 41.28119 | 2.07232 | 893 ft | 155 kts | 244° |
| 2026-05-05 17:01 | 41.27526 | 2.05993 | 1682 ft | 171 kts | 218° |
| 2026-05-05 17:02 | 41.26329 | 2.05505 | 2256 ft | 194 kts | 185° |
| 2026-05-05 17:02 | 41.24906 | 2.05555 | 2616 ft | 214 kts | 178° |
| 2026-05-05 17:02 | 41.23397 | 2.05681 | 3248 ft | 220 kts | 179° |
| 2026-05-05 17:02 | 41.21871 | 2.05745 | 4034 ft | 220 kts | 182° |
| 2026-05-05 17:03 | 41.20333 | 2.05727 | 4825 ft | 221 kts | 184° |
| 2026-05-05 17:03 | 41.18790 | 2.05642 | 5604 ft | 225 kts | 186° |
| 2026-05-05 17:03 | 41.17206 | 2.05521 | 6123 ft | 230 kts | 185° |
| 2026-05-05 17:03 | 41.15559 | 2.05456 | 6815 ft | 241 kts | 184° |
| 2026-05-05 17:04 | 41.13869 | 2.05414 | 7666 ft | 245 kts | 184° |
| 2026-05-05 17:04 | 41.12159 | 2.05368 | 8543 ft | 247 kts | 185° |
| 2026-05-05 17:04 | 41.10431 | 2.05311 | 9439 ft | 249 kts | 186° |
| 2026-05-05 17:04 | 41.08695 | 2.05244 | 10307 ft | 250 kts | 186° |
| 2026-05-05 17:05 | 41.06970 | 2.05170 | 11134 ft | 252 kts | 186° |
| 2026-05-05 17:05 | 41.05206 | 2.05091 | 11970 ft | 254 kts | 187° |
| 2026-05-05 17:05 | 41.03430 | 2.05028 | 12671 ft | 262 kts | 183° |
| 2026-05-05 17:05 | 41.01567 | 2.05657 | 12935 ft | 297 kts | 155° |
| 2026-05-05 17:06 | 40.99988 | 2.07627 | 13149 ft | 333 kts | 126° |
| 2026-05-05 17:06 | 40.99131 | 2.10614 | 13332 ft | 364 kts | 105° |
| 2026-05-05 17:06 | 40.98798 | 2.14003 | 13828 ft | 377 kts | 96° |
| 2026-05-05 17:06 | 40.98743 | 2.17518 | 14396 ft | 384 kts | 92° |
| 2026-05-05 17:07 | 40.98785 | 2.21079 | 14942 ft | 390 kts | 92° |
| 2026-05-05 17:07 | 40.98813 | 2.24690 | 15492 ft | 394 kts | 93° |
| 2026-05-05 17:07 | 40.98776 | 2.28337 | 16044 ft | 399 kts | 95° |
| 2026-05-05 17:07 | 40.98671 | 2.32034 | 16582 ft | 403 kts | 97° |
| 2026-05-05 17:08 | 40.98516 | 2.35751 | 17144 ft | 407 kts | 98° |
| 2026-05-05 17:08 | 40.98328 | 2.39518 | 17709 ft | 412 kts | 98° |
| 2026-05-05 17:08 | 40.98126 | 2.43323 | 18266 ft | 417 kts | 98° |
| 2026-05-05 17:08 | 40.97923 | 2.47168 | 18769 ft | 421 kts | 98° |
| 2026-05-05 17:09 | 40.97728 | 2.51062 | 19296 ft | 426 kts | 98° |
| 2026-05-05 17:09 | 40.97540 | 2.54994 | 19821 ft | 431 kts | 98° |
| 2026-05-05 17:09 | 40.97359 | 2.58917 | 20342 ft | 435 kts | 98° |
| 2026-05-05 17:09 | 40.97171 | 2.62980 | 20851 ft | 440 kts | 98° |
| 2026-05-05 17:10 | 40.96985 | 2.66989 | 21340 ft | 444 kts | 98° |
| 2026-05-05 17:10 | 40.96789 | 2.71124 | 21794 ft | 449 kts | 98° |
| 2026-05-05 17:10 | 40.96590 | 2.75257 | 22262 ft | 454 kts | 99° |
| 2026-05-05 17:10 | 40.96385 | 2.79451 | 22729 ft | 458 kts | 99° |
| 2026-05-05 17:11 | 40.96174 | 2.83684 | 23192 ft | 463 kts | 99° |
| 2026-05-05 17:11 | 40.95959 | 2.87953 | 23621 ft | 467 kts | 99° |
| 2026-05-05 17:11 | 40.95742 | 2.92252 | 24007 ft | 471 kts | 99° |
| 2026-05-05 17:11 | 40.95527 | 2.96581 | 24398 ft | 474 kts | 99° |
| 2026-05-05 17:12 | 40.95310 | 3.00953 | 24812 ft | 476 kts | 99° |
| 2026-05-05 17:12 | 40.95088 | 3.05344 | 25172 ft | 479 kts | 99° |
| 2026-05-05 17:12 | 40.94864 | 3.09692 | 25580 ft | 481 kts | 99° |
| 2026-05-05 17:12 | 40.94711 | 3.12666 | 25847 ft | 482 kts | 99° |
| 2026-05-05 17:13 | 40.94406 | 3.18576 | 26353 ft | 486 kts | 100° |
| 2026-05-05 17:13 | 40.94171 | 3.23053 | 26717 ft | 488 kts | 100° |
| 2026-05-05 17:13 | 40.93930 | 3.27546 | 27084 ft | 491 kts | 100° |
| 2026-05-05 17:13 | 40.93769 | 3.30527 | 27325 ft | 493 kts | 100° |
| 2026-05-05 17:14 | 40.93527 | 3.35046 | 27686 ft | 495 kts | 100° |
| 2026-05-05 17:14 | 40.93283 | 3.39608 | 28049 ft | 498 kts | 100° |
| 2026-05-05 17:14 | 40.93035 | 3.44198 | 28408 ft | 500 kts | 101° |
| 2026-05-05 17:14 | 40.92783 | 3.48796 | 28762 ft | 503 kts | 101° |
| 2026-05-05 17:15 | 40.92528 | 3.53412 | 29109 ft | 505 kts | 101° |
| 2026-05-05 17:15 | 40.92269 | 3.58056 | 29451 ft | 508 kts | 101° |
| 2026-05-05 17:15 | 40.92006 | 3.62735 | 29784 ft | 510 kts | 101° |
| 2026-05-05 17:15 | 40.91419 | 3.67319 | 30080 ft | 499 kts | 115° |
| 2026-05-05 17:16 | 40.90141 | 3.71500 | 30402 ft | 487 kts | 124° |
| 2026-05-05 17:16 | 40.88684 | 3.75535 | 30827 ft | 485 kts | 125° |
| 2026-05-05 17:16 | 40.87228 | 3.79538 | 31267 ft | 483 kts | 125° |
| 2026-05-05 17:16 | 40.85768 | 3.83525 | 31681 ft | 481 kts | 125° |
| 2026-05-05 17:17 | 40.84310 | 3.87501 | 32127 ft | 479 kts | 125° |
| 2026-05-05 17:17 | 40.82858 | 3.91463 | 32552 ft | 478 kts | 125° |
| 2026-05-05 17:17 | 40.81417 | 3.95403 | 32984 ft | 477 kts | 125° |
| 2026-05-05 17:17 | 40.79993 | 3.99289 | 33420 ft | 475 kts | 125° |
| 2026-05-05 17:18 | 40.78537 | 4.03254 | 33868 ft | 474 kts | 125° |
| 2026-05-05 17:18 | 40.77118 | 4.07110 | 34244 ft | 473 kts | 125° |
| 2026-05-05 17:18 | 40.75679 | 4.11013 | 34581 ft | 472 kts | 125° |
| 2026-05-05 17:18 | 40.74240 | 4.14908 | 34903 ft | 472 kts | 125° |
| 2026-05-05 17:19 | 40.72797 | 4.18803 | 35208 ft | 472 kts | 124° |
| 2026-05-05 17:19 | 40.71355 | 4.22694 | 35473 ft | 473 kts | 124° |
| 2026-05-05 17:19 | 40.69914 | 4.26587 | 35765 ft | 473 kts | 124° |
| 2026-05-05 17:19 | 40.68470 | 4.30492 | 36053 ft | 473 kts | 124° |
| 2026-05-05 17:20 | 40.67025 | 4.34386 | 36340 ft | 473 kts | 124° |
| 2026-05-05 17:20 | 40.65579 | 4.38271 | 36627 ft | 472 kts | 124° |
| 2026-05-05 17:20 | 40.64129 | 4.42162 | 36846 ft | 473 kts | 124° |
| 2026-05-05 17:20 | 40.62670 | 4.46065 | 36896 ft | 476 kts | 124° |
| 2026-05-05 17:21 | 40.59742 | 4.53895 | 36893 ft | 477 kts | 124° |
| 2026-05-05 17:22 | 40.55362 | 4.65611 | 36903 ft | 476 kts | 124° |
| 2026-05-05 17:22 | 40.52427 | 4.73412 | 36892 ft | 476 kts | 124° |
| 2026-05-05 17:23 | 40.49489 | 4.81207 | 36902 ft | 476 kts | 124° |
| 2026-05-05 17:23 | 40.46539 | 4.89010 | 36913 ft | 476 kts | 124° |
| 2026-05-05 17:24 | 40.43581 | 4.96795 | 36890 ft | 476 kts | 124° |
| 2026-05-05 17:24 | 40.40643 | 5.04528 | 36904 ft | 476 kts | 124° |
| 2026-05-05 17:25 | 40.37666 | 5.12347 | 36930 ft | 480 kts | 124° |
| 2026-05-05 17:25 | 40.34684 | 5.20164 | 36912 ft | 479 kts | 124° |
| 2026-05-05 17:26 | 40.31703 | 5.27960 | 36928 ft | 478 kts | 124° |
| 2026-05-05 17:26 | 40.28714 | 5.35756 | 36911 ft | 477 kts | 124° |
| 2026-05-05 17:27 | 40.25723 | 5.43515 | 36929 ft | 477 kts | 124° |
| 2026-05-05 17:27 | 40.22732 | 5.51251 | 36938 ft | 476 kts | 124° |
| 2026-05-05 17:28 | 40.19753 | 5.58935 | 36936 ft | 476 kts | 124° |
| 2026-05-05 17:28 | 40.16754 | 5.66649 | 36935 ft | 475 kts | 124° |
| 2026-05-05 17:29 | 40.13756 | 5.74365 | 36915 ft | 475 kts | 124° |
| 2026-05-05 17:29 | 40.10755 | 5.82071 | 36929 ft | 475 kts | 124° |
| 2026-05-05 17:30 | 40.07769 | 5.89707 | 36919 ft | 474 kts | 123° |
| 2026-05-05 17:30 | 40.04761 | 5.97359 | 36933 ft | 474 kts | 123° |
| 2026-05-05 17:31 | 40.01744 | 6.05015 | 36944 ft | 473 kts | 124° |
| 2026-05-05 17:31 | 39.98736 | 6.12648 | 36913 ft | 473 kts | 123° |
| 2026-05-05 17:32 | 39.95739 | 6.20230 | 36928 ft | 473 kts | 123° |
| 2026-05-05 17:32 | 39.92725 | 6.27854 | 36939 ft | 473 kts | 123° |
| 2026-05-05 17:33 | 39.89699 | 6.35469 | 36941 ft | 473 kts | 123° |
| 2026-05-05 17:33 | 39.86662 | 6.43086 | 36944 ft | 473 kts | 123° |
| 2026-05-05 17:34 | 39.83627 | 6.50691 | 36923 ft | 473 kts | 123° |
| 2026-05-05 17:34 | 39.80588 | 6.58302 | 36936 ft | 474 kts | 123° |
| 2026-05-05 17:35 | 39.77561 | 6.65855 | 36942 ft | 474 kts | 123° |
| 2026-05-05 17:35 | 39.74499 | 6.73452 | 36951 ft | 474 kts | 123° |
| 2026-05-05 17:36 | 39.71443 | 6.81030 | 36957 ft | 474 kts | 123° |
| 2026-05-05 17:36 | 39.68381 | 6.88610 | 36939 ft | 474 kts | 123° |
| 2026-05-05 17:37 | 39.65309 | 6.96205 | 36944 ft | 474 kts | 123° |
| 2026-05-05 17:37 | 39.62229 | 7.03776 | 36953 ft | 475 kts | 123° |
| 2026-05-05 17:38 | 39.59139 | 7.11359 | 36957 ft | 475 kts | 123° |
| 2026-05-05 17:38 | 39.56073 | 7.18885 | 36961 ft | 475 kts | 123° |
| 2026-05-05 17:39 | 39.52963 | 7.26494 | 36963 ft | 475 kts | 123° |
| 2026-05-05 17:39 | 39.49877 | 7.34005 | 36970 ft | 475 kts | 123° |
| 2026-05-05 17:40 | 39.46772 | 7.41558 | 36974 ft | 475 kts | 123° |
| 2026-05-05 17:40 | 39.43664 | 7.49104 | 36978 ft | 475 kts | 123° |
| 2026-05-05 17:41 | 39.40549 | 7.56628 | 36971 ft | 474 kts | 123° |
| 2026-05-05 17:41 | 39.37452 | 7.64097 | 36959 ft | 474 kts | 123° |
| 2026-05-05 17:42 | 39.34327 | 7.71622 | 36962 ft | 475 kts | 123° |
| 2026-05-05 17:42 | 39.31195 | 7.79134 | 36955 ft | 474 kts | 123° |
| 2026-05-05 17:43 | 39.28088 | 7.86590 | 36981 ft | 474 kts | 123° |
| 2026-05-05 17:43 | 39.24963 | 7.94082 | 36991 ft | 474 kts | 123° |
| 2026-05-05 17:44 | 39.21831 | 8.01552 | 36980 ft | 473 kts | 123° |
| 2026-05-05 17:44 | 39.18695 | 8.08999 | 36992 ft | 473 kts | 123° |
| 2026-05-05 17:45 | 39.15560 | 8.16449 | 36998 ft | 472 kts | 123° |
| 2026-05-05 17:45 | 39.12415 | 8.23882 | 37000 ft | 472 kts | 123° |
| 2026-05-05 17:46 | 39.09270 | 8.31303 | 36996 ft | 472 kts | 123° |
| 2026-05-05 17:46 | 39.06118 | 8.38729 | 36987 ft | 472 kts | 123° |
| 2026-05-05 17:47 | 39.02985 | 8.46098 | 36978 ft | 472 kts | 123° |
| 2026-05-05 17:47 | 38.99829 | 8.53503 | 36991 ft | 472 kts | 123° |
| 2026-05-05 17:48 | 38.96664 | 8.60911 | 36997 ft | 472 kts | 123° |
| 2026-05-05 17:48 | 38.93518 | 8.68252 | 37002 ft | 471 kts | 123° |
| 2026-05-05 17:49 | 38.90348 | 8.75627 | 36994 ft | 471 kts | 123° |
| 2026-05-05 17:49 | 38.87175 | 8.82996 | 37002 ft | 470 kts | 123° |
| 2026-05-05 17:50 | 38.84004 | 8.90336 | 37004 ft | 470 kts | 123° |
| 2026-05-05 17:50 | 38.80832 | 8.97667 | 37004 ft | 470 kts | 123° |
| 2026-05-05 17:51 | 38.77677 | 9.04956 | 37006 ft | 470 kts | 123° |
| 2026-05-05 17:51 | 38.74499 | 9.12272 | 36988 ft | 469 kts | 123° |
| 2026-05-05 17:52 | 38.71320 | 9.19565 | 37000 ft | 468 kts | 123° |
| 2026-05-05 17:52 | 38.68142 | 9.26842 | 37003 ft | 468 kts | 123° |
| 2026-05-05 17:53 | 38.64965 | 9.34107 | 37003 ft | 468 kts | 123° |
| 2026-05-05 17:53 | 38.61808 | 9.41320 | 37000 ft | 467 kts | 123° |
| 2026-05-05 17:54 | 38.58617 | 9.48579 | 37000 ft | 467 kts | 123° |
| 2026-05-05 17:54 | 38.55429 | 9.55807 | 37008 ft | 467 kts | 123° |
| 2026-05-05 17:55 | 38.52232 | 9.63031 | 37006 ft | 467 kts | 123° |
| 2026-05-05 17:55 | 38.49034 | 9.70249 | 37005 ft | 467 kts | 123° |
| 2026-05-05 17:56 | 38.45842 | 9.77465 | 36988 ft | 467 kts | 123° |
| 2026-05-05 17:56 | 38.42638 | 9.84673 | 36981 ft | 467 kts | 123° |
| 2026-05-05 17:57 | 38.39422 | 9.91883 | 36992 ft | 467 kts | 123° |
| 2026-05-05 17:57 | 38.36209 | 9.99085 | 37003 ft | 468 kts | 123° |
| 2026-05-05 17:58 | 38.32990 | 10.06285 | 37006 ft | 468 kts | 123° |
| 2026-05-05 17:58 | 38.29788 | 10.13440 | 37007 ft | 468 kts | 123° |
| 2026-05-05 17:59 | 38.26556 | 10.20622 | 36998 ft | 468 kts | 123° |
| 2026-05-05 17:59 | 38.23314 | 10.27797 | 37010 ft | 467 kts | 123° |
| 2026-05-05 18:00 | 38.20072 | 10.34953 | 37016 ft | 467 kts | 123° |
| 2026-05-05 18:00 | 38.16843 | 10.42103 | 37001 ft | 467 kts | 123° |
| 2026-05-05 18:01 | 38.13616 | 10.49229 | 37008 ft | 467 kts | 123° |
| 2026-05-05 18:01 | 38.10351 | 10.56409 | 37009 ft | 467 kts | 123° |
| 2026-05-05 18:02 | 38.07646 | 10.62333 | 36998 ft | 467 kts | 123° |
| 2026-05-05 18:02 | 38.03854 | 10.70629 | 37005 ft | 467 kts | 123° |
| 2026-05-05 18:03 | 38.01116 | 10.76616 | 37014 ft | 471 kts | 123° |
| 2026-05-05 18:03 | 37.97899 | 10.83646 | 36968 ft | 449 kts | 123° |
| 2026-05-05 18:04 | 37.94769 | 10.90454 | 37001 ft | 451 kts | 123° |
| 2026-05-05 18:04 | 37.93203 | 10.93852 | 36992 ft | 440 kts | 123° |
| 2026-05-05 18:04 | 37.91706 | 10.97106 | 36993 ft | 427 kts | 123° |
| 2026-05-05 18:05 | 37.88757 | 11.03527 | 37008 ft | 424 kts | 123° |
| 2026-05-05 18:05 | 37.85716 | 11.10081 | 37011 ft | 439 kts | 123° |
| 2026-05-05 18:06 | 37.82578 | 11.16843 | 37005 ft | 453 kts | 123° |
| 2026-05-05 18:06 | 37.79338 | 11.23816 | 37003 ft | 464 kts | 123° |
| 2026-05-05 18:07 | 37.76051 | 11.30868 | 37015 ft | 466 kts | 123° |
| 2026-05-05 18:07 | 37.72763 | 11.37924 | 37007 ft | 466 kts | 123° |
| 2026-05-05 18:08 | 37.69470 | 11.44988 | 37005 ft | 466 kts | 123° |
| 2026-05-05 18:08 | 37.66170 | 11.52044 | 37014 ft | 467 kts | 123° |
| 2026-05-05 18:09 | 37.62856 | 11.59094 | 37024 ft | 467 kts | 123° |
| 2026-05-05 18:09 | 37.59541 | 11.66139 | 37008 ft | 467 kts | 123° |
| 2026-05-05 18:10 | 37.56241 | 11.73126 | 37011 ft | 467 kts | 123° |
| 2026-05-05 18:10 | 37.52907 | 11.80175 | 37024 ft | 468 kts | 123° |
| 2026-05-05 18:11 | 37.49564 | 11.87234 | 37029 ft | 468 kts | 123° |
| 2026-05-05 18:11 | 37.46216 | 11.94282 | 37032 ft | 468 kts | 123° |
| 2026-05-05 18:12 | 37.42872 | 12.01313 | 37033 ft | 468 kts | 123° |
| 2026-05-05 18:12 | 37.39529 | 12.08338 | 37034 ft | 468 kts | 123° |
| 2026-05-05 18:13 | 37.36200 | 12.15335 | 37036 ft | 469 kts | 123° |
| 2026-05-05 18:13 | 37.32841 | 12.22365 | 37049 ft | 469 kts | 124° |
| 2026-05-05 18:14 | 37.29484 | 12.29351 | 36696 ft | 468 kts | 124° |
| 2026-05-05 18:14 | 37.27798 | 12.32858 | 36433 ft | 468 kts | 124° |
| 2026-05-05 18:14 | 37.26117 | 12.36351 | 36187 ft | 468 kts | 124° |
| 2026-05-05 18:14 | 37.24434 | 12.39847 | 35924 ft | 468 kts | 124° |
| 2026-05-05 18:15 | 37.22750 | 12.43342 | 35663 ft | 468 kts | 123° |
| 2026-05-05 18:15 | 37.21060 | 12.46850 | 35416 ft | 469 kts | 123° |
| 2026-05-05 18:15 | 37.19369 | 12.50363 | 35175 ft | 469 kts | 123° |
| 2026-05-05 18:15 | 37.17671 | 12.53864 | 34921 ft | 469 kts | 126° |
| 2026-05-05 18:16 | 37.15720 | 12.57115 | 34689 ft | 466 kts | 133° |
| 2026-05-05 18:16 | 37.13628 | 12.60229 | 34458 ft | 467 kts | 133° |
| 2026-05-05 18:16 | 37.11539 | 12.63338 | 34213 ft | 467 kts | 133° |
| 2026-05-05 18:16 | 37.09450 | 12.66449 | 33969 ft | 467 kts | 133° |
| 2026-05-05 18:17 | 37.07359 | 12.69566 | 33702 ft | 468 kts | 133° |
| 2026-05-05 18:17 | 37.05292 | 12.72649 | 33430 ft | 468 kts | 133° |
| 2026-05-05 18:17 | 37.03197 | 12.75770 | 33164 ft | 469 kts | 133° |
| 2026-05-05 18:17 | 37.01102 | 12.78889 | 32878 ft | 467 kts | 133° |
| 2026-05-05 18:18 | 36.99012 | 12.81996 | 32626 ft | 465 kts | 133° |
| 2026-05-05 18:18 | 36.96934 | 12.85083 | 32232 ft | 461 kts | 133° |
| 2026-05-05 18:18 | 36.94875 | 12.88142 | 31660 ft | 458 kts | 133° |
| 2026-05-05 18:18 | 36.92830 | 12.91176 | 31106 ft | 455 kts | 133° |
| 2026-05-05 18:19 | 36.90795 | 12.94186 | 30550 ft | 452 kts | 133° |
| 2026-05-05 18:19 | 36.88771 | 12.97174 | 29973 ft | 449 kts | 133° |
| 2026-05-05 18:19 | 36.86759 | 13.00146 | 29385 ft | 445 kts | 133° |
| 2026-05-05 18:19 | 36.84770 | 13.03085 | 28837 ft | 441 kts | 133° |
| 2026-05-05 18:20 | 36.82800 | 13.05993 | 28296 ft | 437 kts | 133° |
| 2026-05-05 18:20 | 36.80842 | 13.08879 | 27756 ft | 434 kts | 133° |
| 2026-05-05 18:20 | 36.78899 | 13.11738 | 27225 ft | 430 kts | 133° |
| 2026-05-05 18:20 | 36.76969 | 13.14576 | 26688 ft | 428 kts | 133° |
| 2026-05-05 18:21 | 36.75052 | 13.17394 | 26173 ft | 425 kts | 133° |
| 2026-05-05 18:21 | 36.73145 | 13.20198 | 25648 ft | 423 kts | 132° |
| 2026-05-05 18:21 | 36.71245 | 13.22992 | 25148 ft | 421 kts | 132° |
| 2026-05-05 18:21 | 36.69351 | 13.25768 | 24648 ft | 420 kts | 133° |
| 2026-05-05 18:22 | 36.67462 | 13.28535 | 24159 ft | 418 kts | 132° |
| 2026-05-05 18:22 | 36.65576 | 13.31293 | 23669 ft | 417 kts | 132° |
| 2026-05-05 18:22 | 36.63697 | 13.34042 | 23121 ft | 416 kts | 132° |
| 2026-05-05 18:22 | 36.61828 | 13.36771 | 22632 ft | 413 kts | 133° |
| 2026-05-05 18:23 | 36.59965 | 13.39478 | 22141 ft | 411 kts | 133° |
| 2026-05-05 18:23 | 36.58108 | 13.42175 | 21633 ft | 409 kts | 133° |
| 2026-05-05 18:23 | 36.56263 | 13.44857 | 21107 ft | 407 kts | 132° |
| 2026-05-05 18:23 | 36.54428 | 13.47528 | 20587 ft | 406 kts | 132° |
| 2026-05-05 18:24 | 36.52619 | 13.50159 | 20051 ft | 405 kts | 132° |
| 2026-05-05 18:24 | 36.50766 | 13.52853 | 19494 ft | 404 kts | 132° |
| 2026-05-05 18:24 | 36.48940 | 13.55505 | 18944 ft | 404 kts | 132° |
| 2026-05-05 18:24 | 36.47111 | 13.58160 | 18382 ft | 403 kts | 132° |
| 2026-05-05 18:25 | 36.45297 | 13.60793 | 17882 ft | 398 kts | 132° |
| 2026-05-05 18:25 | 36.44105 | 13.62523 | 17473 ft | 397 kts | 132° |
| 2026-05-05 18:25 | 36.41723 | 13.65979 | 16713 ft | 389 kts | 132° |
| 2026-05-05 18:25 | 36.40025 | 13.68442 | 16549 ft | 362 kts | 132° |
| 2026-05-05 18:26 | 36.38445 | 13.70731 | 16409 ft | 337 kts | 133° |
| 2026-05-05 18:26 | 36.36980 | 13.72851 | 16194 ft | 319 kts | 133° |
| 2026-05-05 18:26 | 36.35529 | 13.74942 | 15666 ft | 313 kts | 133° |
| 2026-05-05 18:26 | 36.34110 | 13.76980 | 15045 ft | 312 kts | 133° |
| 2026-05-05 18:27 | 36.32724 | 13.78977 | 14661 ft | 302 kts | 133° |
| 2026-05-05 18:27 | 36.31366 | 13.80936 | 14128 ft | 301 kts | 133° |
| 2026-05-05 18:27 | 36.30008 | 13.82887 | 13621 ft | 296 kts | 133° |
| 2026-05-05 18:27 | 36.28688 | 13.84789 | 13273 ft | 286 kts | 133° |
| 2026-05-05 18:28 | 36.26099 | 13.88515 | 12080 ft | 287 kts | 133° |
| 2026-05-05 18:28 | 36.24790 | 13.90398 | 11367 ft | 291 kts | 133° |
| 2026-05-05 18:28 | 36.23462 | 13.92308 | 10642 ft | 294 kts | 133° |
| 2026-05-05 18:29 | 36.22115 | 13.94239 | 9931 ft | 297 kts | 132° |
| 2026-05-05 18:29 | 36.20761 | 13.96182 | 9149 ft | 299 kts | 132° |
| 2026-05-05 18:29 | 36.19420 | 13.98104 | 8399 ft | 299 kts | 133° |
| 2026-05-05 18:29 | 36.18074 | 14.00034 | 7926 ft | 289 kts | 131° |
| 2026-05-05 18:30 | 36.16797 | 14.01869 | 7808 ft | 277 kts | 132° |
| 2026-05-05 18:30 | 36.15544 | 14.03664 | 7674 ft | 273 kts | 132° |
| 2026-05-05 18:30 | 36.14347 | 14.05379 | 7549 ft | 255 kts | 132° |
| 2026-05-05 18:30 | 36.13203 | 14.07015 | 7272 ft | 249 kts | 132° |
| 2026-05-05 18:31 | 36.12073 | 14.08627 | 6984 ft | 247 kts | 132° |
| 2026-05-05 18:31 | 36.10947 | 14.10234 | 6702 ft | 247 kts | 131° |
| 2026-05-05 18:31 | 36.09823 | 14.11842 | 6412 ft | 246 kts | 132° |
| 2026-05-05 18:31 | 36.08706 | 14.13439 | 6113 ft | 245 kts | 132° |
| 2026-05-05 18:32 | 36.07589 | 14.15035 | 5820 ft | 246 kts | 131° |
| 2026-05-05 18:32 | 36.06467 | 14.16638 | 5505 ft | 246 kts | 132° |
| 2026-05-05 18:32 | 36.05347 | 14.18233 | 5159 ft | 246 kts | 131° |
| 2026-05-05 18:32 | 36.04223 | 14.19841 | 4815 ft | 247 kts | 129° |
| 2026-05-05 18:33 | 36.03395 | 14.21645 | 4465 ft | 240 kts | 112° |
| 2026-05-05 18:33 | 36.02838 | 14.23543 | 4120 ft | 231 kts | 111° |
| 2026-05-05 18:33 | 36.02298 | 14.25373 | 3772 ft | 223 kts | 111° |
| 2026-05-05 18:33 | 36.01778 | 14.27127 | 3425 ft | 216 kts | 112° |
| 2026-05-05 18:34 | 36.01063 | 14.28703 | 3088 ft | 209 kts | 135° |
| 2026-05-05 18:34 | 36.00043 | 14.29966 | 2996 ft | 207 kts | 135° |
| 2026-05-05 18:34 | 35.99029 | 14.31231 | 3001 ft | 211 kts | 135° |
| 2026-05-05 18:34 | 35.97992 | 14.32525 | 3001 ft | 208 kts | 136° |
| 2026-05-05 18:35 | 35.96981 | 14.33785 | 3001 ft | 211 kts | 135° |
| 2026-05-05 18:35 | 35.95954 | 14.35065 | 2986 ft | 208 kts | 136° |
| 2026-05-05 18:35 | 35.94954 | 14.36310 | 2812 ft | 202 kts | 136° |
| 2026-05-05 18:35 | 35.93966 | 14.37539 | 2565 ft | 201 kts | 136° |
| 2026-05-05 18:36 | 35.92991 | 14.38753 | 2323 ft | 196 kts | 135° |
| 2026-05-05 18:36 | 35.92053 | 14.39918 | 2053 ft | 184 kts | 135° |
| 2026-05-05 18:36 | 35.91183 | 14.41000 | 1814 ft | 171 kts | 135° |
| 2026-05-05 18:36 | 35.90378 | 14.42001 | 1610 ft | 153 kts | 135° |
| 2026-05-05 18:37 | 35.89678 | 14.42871 | 1406 ft | 135 kts | 135° |
| 2026-05-05 18:37 | 35.89029 | 14.43676 | 1231 ft | 130 kts | 134° |
| 2026-05-05 18:37 | 35.88400 | 14.44457 | 1056 ft | 130 kts | 134° |
| 2026-05-05 18:37 | 35.87756 | 14.45257 | 892 ft | 128 kts | 135° |
| 2026-05-05 18:38 | 35.87139 | 14.46022 | 728 ft | 126 kts | 134° |
| 2026-05-05 18:38 | 35.86522 | 14.46787 | 565 ft | 125 kts | 132° |
| 2026-05-05 18:38 | 35.85912 | 14.47553 | 390 ft | 126 kts | 134° |
| 2026-05-05 18:38 | 35.85293 | 14.48314 | 299 ft | 119 kts | 134° |
| 2026-05-05 18:39 | 35.84769 | 14.48965 | 260 ft | 95 kts | 134° |
| 2026-05-05 18:39 | 35.84419 | 14.49408 | 259 ft | 33 kts | 133° |
| 2026-05-05 18:39 | 35.84291 | 14.49573 | 257 ft | 19 kts | 134° |
| 2026-05-05 18:39 | 35.84226 | 14.49683 | 256 ft | 9 kts | 78° |
| 2026-05-05 18:40 | 35.84299 | 14.49684 | 256 ft | 17 kts | 343° |
| 2026-05-05 18:40 | 35.84441 | 14.49634 | 258 ft | 26 kts | 341° |
| 2026-05-05 18:40 | 35.84577 | 14.49500 | 259 ft | 25 kts | 313° |
| 2026-05-05 18:40 | 35.84699 | 14.49347 | 259 ft | 21 kts | 315° |
| 2026-05-05 18:41 | 35.84791 | 14.49235 | 259 ft | 18 kts | 315° |
| 2026-05-05 18:41 | 35.84812 | 14.49209 | 259 ft | 0 kts | 315° |
| 2026-05-05 18:42 | 35.84832 | 14.49185 | 259 ft | 8 kts | 315° |
| 2026-05-05 18:42 | 35.84888 | 14.49151 | 259 ft | 8 kts | 7° |
| 2026-05-05 18:42 | 35.84932 | 14.49193 | 258 ft | 7 kts | 58° |
| 2026-05-05 18:42 | 35.84930 | 14.49256 | 258 ft | 7 kts | 89° |
| 2026-05-05 18:43 | 35.84975 | 14.49271 | 258 ft | 8 kts | 357° |
| 2026-05-05 18:43 | 35.84995 | 14.49270 | 258 ft | 0 kts | 359° |